Time;durP1;ratioP1;P1;durP2;ratioP2;P2;SDS_P1;SDS_P2;PMS_P1;PMS_P2;Temp;Humidity;BMP_temperature;BMP_pressure;BME280_temperature;BME280_humidity;BME280_pressure;Samples;Min_cycle;Max_cycle;Signal;HPM_P1;HPM_P2
2023/03/16 05:30:48;;;;;;;;;4.50;3.00;;;;;9.63;47.15;100944.09;5083250;27;45893;-75
2023/03/16 05:33:13;;;;;;;;;4.75;3.00;;;;;9.64;47.26;100948.53;5074464;28;45255;-73
2023/03/16 05:35:39;;;;;;;;;1.75;1.75;;;;;9.71;46.85;100949.16;5074139;28;46069;-74
2023/03/16 05:38:04;;;;;;;;;5.25;2.50;;;;;9.65;46.68;100936.88;5074505;28;45315;-74
2023/03/16 05:40:30;;;;;;;;;2.75;2.75;;;;;9.68;46.99;100949.28;5074686;28;45405;-74
2023/03/16 05:42:57;;;;;;;;;1.50;1.50;;;;;9.70;46.91;100956.31;5074083;28;45968;-74
2023/03/16 05:45:23;;;;;;;;;4.00;4.00;;;;;9.71;46.82;100958.06;5074248;28;45453;-76
2023/03/16 05:47:48;;;;;;;;;7.25;3.25;;;;;9.59;47.36;100950.53;5070548;28;45382;-73
2023/03/16 05:50:18;;;;;;;;;2.00;2.00;;;;;9.66;46.93;100954.69;5067944;28;45481;-73
2023/03/16 05:52:45;;;;;;;;;2.75;2.75;;;;;9.71;47.46;100960.72;5075060;28;45474;-75
2023/03/16 05:55:13;;;;;;;;;1.00;1.00;;;;;9.73;46.87;100952.66;5065609;28;45413;-74
2023/03/16 05:57:40;;;;;;;;;3.00;2.00;;;;;9.75;46.80;100948.13;5036723;28;45912;-74
2023/03/16 06:00:13;;;;;;;;;1.00;1.00;;;;;9.77;46.80;100952.47;5054741;28;45323;-76
2023/03/16 06:02:38;;;;;;;;;2.00;2.00;;;;;9.67;47.13;100940.38;5067094;28;45292;-75
2023/03/16 06:05:04;;;;;;;;;1.25;1.25;;;;;9.67;46.71;100937.72;5056499;28;45458;-73
2023/03/16 06:07:29;;;;;;;;;1.00;1.00;;;;;9.69;46.62;100945.69;5035180;28;45472;-74
2023/03/16 06:09:55;;;;;;;;;2.00;2.00;;;;;9.64;46.90;100944.97;5053255;28;45228;-74
2023/03/16 06:12:20;;;;;;;;;2.00;2.00;;;;;9.72;47.21;100945.53;5053311;28;45314;-74
2023/03/16 06:14:45;;;;;;;;;1.50;1.50;;;;;9.75;46.43;100943.63;5054795;28;52577;-74
2023/03/16 06:17:11;;;;;;;;;2.00;2.00;;;;;9.55;46.58;100927.47;5074288;28;45512;-75
2023/03/16 06:19:36;;;;;;;;;2.00;2.00;;;;;9.62;47.04;100942.34;5078930;28;45347;-71
2023/03/16 06:22:01;;;;;;;;;2.00;2.00;;;;;9.70;46.99;100953.63;5076989;28;45294;-73
2023/03/16 06:24:28;;;;;;;;;4.00;1.00;;;;;9.74;46.92;100954.41;5058313;28;46097;-71
2023/03/16 06:26:53;;;;;;;;;3.50;1.75;;;;;9.75;46.23;100945.44;5077362;28;45415;-71
2023/03/16 06:29:19;;;;;;;;;3.00;1.75;;;;;9.84;46.52;100953.09;5076899;28;45628;-71
2023/03/16 06:31:44;;;;;;;;;2.00;2.00;;;;;9.81;46.14;100946.06;5058208;28;46953;-71
2023/03/16 06:34:10;;;;;;;;;3.75;1.25;;;;;9.77;45.87;100956.97;5076276;28;47086;-74
2023/03/16 06:36:38;;;;;;;;;1.00;1.00;;;;;9.75;45.54;100951.66;5076742;28;45419;-73
2023/03/16 06:39:04;;;;;;;;;2.75;1.50;;;;;9.78;46.05;100953.34;5077032;28;45592;-75
2023/03/16 06:41:29;;;;;;;;;1.00;1.00;;;;;9.69;45.61;100935.84;5058458;28;46500;-75
2023/03/16 06:43:55;;;;;;;;;1.50;1.00;;;;;9.80;45.47;100940.75;5076532;28;45983;-75
2023/03/16 06:46:20;;;;;;;;;1.00;1.00;;;;;9.65;46.10;100909.25;5076552;28;51353;-74
2023/03/16 06:48:46;;;;;;;;;2.00;2.00;;;;;9.90;45.76;100949.31;5076723;28;45339;-74
2023/03/16 06:51:11;;;;;;;;;2.75;1.00;;;;;9.90;45.91;100943.94;5076728;28;45484;-75
2023/03/16 06:53:37;;;;;;;;;2.75;1.00;;;;;9.87;46.00;100940.44;5076408;28;46343;-73
2023/03/16 06:56:02;;;;;;;;;4.00;2.75;;;;;9.91;45.77;100951.06;5058987;28;45339;-73
2023/03/16 06:58:28;;;;;;;;;1.50;1.50;;;;;9.80;45.11;100922.00;5056328;28;45300;-72
2023/03/16 07:00:53;;;;;;;;;1.75;1.75;;;;;9.92;45.44;100940.28;5038038;28;45479;-71
2023/03/16 07:03:18;;;;;;;;;2.00;2.00;;;;;9.85;45.65;100925.41;5077660;28;45924;-72
2023/03/16 07:05:44;;;;;;;;;1.00;1.00;;;;;9.78;45.56;100922.06;5056094;28;45280;-72
2023/03/16 07:08:10;;;;;;;;;2.50;1.00;;;;;9.73;45.36;100923.19;5056475;28;45853;-74
2023/03/16 07:10:36;;;;;;;;;5.75;3.00;;;;;9.71;45.59;100925.94;5056283;28;45465;-73
2023/03/16 07:13:01;;;;;;;;;4.75;2.00;;;;;9.69;45.42;100919.78;5056250;28;46307;-74
2023/03/16 07:15:27;;;;;;;;;2.00;2.00;;;;;9.75;45.70;100932.91;5056317;28;45329;-72
2023/03/16 07:17:52;;;;;;;;;2.00;2.00;;;;;9.71;45.25;100925.06;5056109;28;45220;-73
2023/03/16 07:20:19;;;;;;;;;1.25;1.25;;;;;9.76;45.12;100920.41;5055835;28;45427;-73
2023/03/16 07:22:44;;;;;;;;;1.25;1.25;;;;;9.77;45.62;100917.69;5071437;28;45318;-72
2023/03/16 07:25:10;;;;;;;;;3.25;2.00;;;;;9.73;45.75;100901.78;5075081;28;45203;-72
2023/03/16 07:27:36;;;;;;;;;1.00;1.00;;;;;9.79;45.76;100915.78;5075412;28;45486;-72
2023/03/16 07:30:03;;;;;;;;;3.75;2.00;;;;;9.85;45.52;100920.03;5076076;28;45346;-70
2023/03/16 07:32:31;;;;;;;;;5.50;5.50;;;;;9.85;45.68;100920.03;5075732;28;47185;-71
2023/03/16 07:34:57;;;;;;;;;2.00;2.00;;;;;9.92;45.88;100905.47;5075761;28;45315;-72
2023/03/16 07:37:23;;;;;;;;;1.25;1.25;;;;;10.07;45.36;100906.63;5076370;28;45657;-73
2023/03/16 07:39:49;;;;;;;;;3.00;1.75;;;;;10.03;45.16;100892.53;5076404;28;45326;-70
2023/03/16 07:42:14;;;;;;;;;2.75;2.75;;;;;9.92;45.13;100893.88;5076575;28;46028;-72
2023/03/16 07:44:40;;;;;;;;;1.50;1.50;;;;;9.99;45.32;100898.91;5076320;28;45407;-71
2023/03/16 07:47:05;;;;;;;;;2.00;1.50;;;;;10.10;45.32;100910.06;5076237;28;45331;-72
2023/03/16 07:49:31;;;;;;;;;2.00;2.00;;;;;10.15;45.30;100912.56;5075980;28;45532;-71
2023/03/16 07:51:56;;;;;;;;;3.25;2.00;;;;;10.11;45.12;100911.81;5075601;28;45909;-72
2023/03/16 07:54:23;;;;;;;;;1.25;1.25;;;;;10.12;44.97;100905.50;5073131;28;45371;-72
2023/03/16 07:56:48;;;;;;;;;2.00;2.00;;;;;10.18;44.96;100921.38;5055995;28;45334;-71
2023/03/16 07:59:13;;;;;;;;;2.00;2.00;;;;;10.21;44.82;100905.16;5056958;28;45513;-72
2023/03/16 08:01:39;;;;;;;;;2.00;2.00;;;;;10.33;45.15;100919.00;5061577;28;45384;-71
2023/03/16 08:04:04;;;;;;;;;2.00;2.00;;;;;10.35;44.84;100911.75;5068384;28;45373;-71
2023/03/16 08:06:29;;;;;;;;;1.50;0.75;;;;;10.42;44.62;100915.91;5056807;28;45390;-72
2023/03/16 08:08:55;;;;;;;;;1.75;1.75;;;;;10.45;44.45;100915.81;5056171;28;45486;-72
2023/03/16 08:11:23;;;;;;;;;3.00;2.00;;;;;10.39;44.46;100905.31;5055273;28;48419;-72
2023/03/16 08:13:55;;;;;;;;;2.00;2.00;;;;;10.29;44.96;100885.25;5055760;28;45348;-72
2023/03/16 08:16:21;;;;;;;;;2.50;2.00;;;;;10.48;44.53;100907.59;5054180;28;45541;-71
2023/03/16 08:18:48;;;;;;;;;3.00;2.00;;;;;10.54;44.79;100913.59;5055456;28;45245;-72
2023/03/16 08:21:14;;;;;;;;;1.25;1.25;;;;;10.55;44.63;100915.31;5054658;28;47124;-72
2023/03/16 08:23:39;;;;;;;;;3.00;1.00;;;;;10.63;44.42;100927.53;5055535;28;45416;-73
2023/03/16 08:26:07;;;;;;;;;1.50;1.50;;;;;10.66;44.89;100928.28;5055346;28;45972;-72
2023/03/16 08:28:34;;;;;;;;;1.50;1.50;;;;;10.76;44.66;100926.94;5037291;28;47018;-72
2023/03/16 08:31:00;;;;;;;;;2.00;2.00;;;;;10.73;44.65;100915.47;5054904;28;46282;-72
2023/03/16 08:33:26;;;;;;;;;2.00;2.00;;;;;10.79;44.34;100920.56;5055277;28;45497;-73
2023/03/16 08:35:52;;;;;;;;;4.50;2.00;;;;;10.57;44.39;100875.91;5055259;28;45265;-74
2023/03/16 08:38:19;;;;;;;;;3.50;2.25;;;;;10.80;44.21;100917.81;5054681;28;45257;-72
2023/03/16 08:40:47;;;;;;;;;2.00;2.00;;;;;10.84;44.28;100922.09;5055308;28;46579;-72
2023/03/16 08:43:17;;;;;;;;;3.00;3.00;;;;;10.90;44.66;100919.16;5055288;28;45318;-73
2023/03/16 08:45:47;;;;;;;;;3.00;2.00;;;;;10.79;44.82;100899.13;5054973;28;45364;-72
2023/03/16 08:48:13;;;;;;;;;3.25;1.50;;;;;10.97;44.62;100914.41;5054813;28;45496;-72
2023/03/16 08:50:42;;;;;;;;;3.00;3.00;;;;;11.00;44.07;100907.06;5054547;28;45538;-72
2023/03/16 08:53:09;;;;;;;;;2.25;2.25;;;;;11.05;43.84;100903.31;5054749;28;45225;-73
2023/03/16 08:55:35;;;;;;;;;3.00;2.00;;;;;10.95;43.74;100889.44;5054802;28;45308;-73
2023/03/16 08:58:01;;;;;;;;;3.00;2.00;;;;;10.95;44.59;100886.78;5054852;28;45556;-72
2023/03/16 09:00:27;;;;;;;;;2.00;2.00;;;;;11.14;44.52;100900.22;5054561;28;45393;-71
2023/03/16 09:02:54;;;;;;;;;5.00;2.00;;;;;11.26;44.60;100911.25;5070210;28;45378;-73
2023/03/16 09:05:20;;;;;;;;;1.00;1.00;;;;;11.36;44.04;100906.34;5055592;28;45585;-72
2023/03/16 09:07:46;;;;;;;;;1.00;1.00;;;;;11.34;44.77;100905.53;5054769;28;45276;-72
2023/03/16 09:10:13;;;;;;;;;2.75;2.75;;;;;11.44;44.52;100901.47;5054506;28;45284;-71
2023/03/16 09:12:39;;;;;;;;;2.50;2.50;;;;;11.50;44.07;100903.00;5054796;28;45338;-73
2023/03/16 09:15:06;;;;;;;;;6.50;4.00;;;;;11.42;43.62;100875.63;5054557;28;45426;-72
2023/03/16 09:17:32;;;;;;;;;1.50;0.50;;;;;11.66;43.82;100896.81;5054633;28;45256;-72
2023/03/16 09:19:57;;;;;;;;;1.50;1.50;;;;;11.75;43.74;100891.03;5053977;28;46218;-72
2023/03/16 09:22:23;;;;;;;;;2.50;1.75;;;;;11.88;43.35;100895.81;5054619;28;45366;-74
2023/03/16 09:24:48;;;;;;;;;2.25;2.25;;;;;11.88;43.40;100891.31;5054584;28;45504;-72
2023/03/16 09:27:15;;;;;;;;;3.25;2.00;;;;;12.04;42.61;100888.75;5054570;28;45300;-73
2023/03/16 09:29:41;;;;;;;;;2.00;2.00;;;;;12.16;43.08;100892.66;5054257;28;45386;-72
2023/03/16 09:32:09;;;;;;;;;4.00;2.00;;;;;12.21;42.59;100880.72;5054588;28;45554;-72
2023/03/16 09:34:34;;;;;;;;;1.00;1.00;;;;;12.23;42.84;100875.28;5054195;28;45299;-75
2023/03/16 09:37:00;;;;;;;;;4.00;2.50;;;;;12.37;42.63;100889.75;5054396;28;45346;-72
2023/03/16 09:39:25;;;;;;;;;1.00;1.00;;;;;12.40;42.42;100877.97;5054223;28;45436;-73
2023/03/16 09:42:03;;;;;;;;;2.50;1.00;;;;;12.45;42.17;100873.22;5036165;28;45287;-73
2023/03/16 09:44:37;;;;;;;;;2.75;2.00;;;;;12.59;42.63;100880.59;5061670;28;45358;-72
2023/03/16 09:47:04;;;;;;;;;1.25;1.25;;;;;12.65;42.30;100872.19;5074301;28;46238;-73
2023/03/16 09:49:36;;;;;;;;;2.00;2.00;;;;;12.66;42.12;100852.41;5076648;28;45385;-72
2023/03/16 09:52:19;;;;;;;;;2.00;2.00;;;;;12.61;41.85;100843.69;5077883;28;45438;-73
2023/03/16 09:55:15;;;;;;;;;5.50;3.00;;;;;12.81;42.16;100865.03;5072112;28;45459;-71
2023/03/16 09:57:43;;;;;;;;;2.00;2.00;;;;;12.85;41.60;100864.78;5068003;28;45212;-73
2023/03/16 10:00:25;;;;;;;;;3.75;1.25;;;;;12.78;41.70;100863.38;5061230;28;45387;-72
2023/03/16 10:03:05;;;;;;;;;2.00;2.00;;;;;12.77;41.96;100856.25;5050866;28;45406;-72
2023/03/16 10:05:31;;;;;;;;;1.25;1.25;;;;;12.92;42.28;100854.59;5057534;28;45445;-73
2023/03/16 10:08:20;;;;;;;;;2.25;2.25;;;;;13.00;42.16;100864.94;5057707;28;45557;-73
2023/03/16 10:11:01;;;;;;;;;1.00;1.00;;;;;13.08;42.02;100860.88;5067684;28;46418;-71
2023/03/16 10:13:29;;;;;;;;;1.00;1.00;;;;;13.12;41.58;100861.56;5078278;28;45236;-72
2023/03/16 10:15:58;;;;;;;;;3.25;2.00;;;;;13.21;42.50;100855.72;5078688;28;45177;-73
2023/03/16 10:18:31;;;;;;;;;1.75;1.50;;;;;13.33;42.13;100865.81;5078346;28;45335;-71
2023/03/16 10:20:57;;;;;;;;;1.00;1.00;;;;;13.35;41.56;100857.66;5077818;28;45226;-71
2023/03/16 10:23:24;;;;;;;;;3.00;3.00;;;;;13.39;41.30;100857.38;5077518;28;45256;-72
2023/03/16 10:25:53;;;;;;;;;1.00;1.00;;;;;13.40;41.47;100858.25;5077557;28;45434;-73
2023/03/16 10:28:31;;;;;;;;;3.00;2.50;;;;;13.42;41.63;100854.53;5077465;28;45521;-72
2023/03/16 10:30:58;;;;;;;;;2.75;1.00;;;;;13.51;41.72;100848.63;5077031;28;45299;-73
2023/03/16 10:33:28;;;;;;;;;1.75;1.75;;;;;13.61;41.95;100846.28;5077506;28;45382;-70
2023/03/16 10:36:09;;;;;;;;;2.50;2.50;;;;;13.74;41.62;100849.16;5058692;28;45480;-72
2023/03/16 10:38:49;;;;;;;;;2.50;2.50;;;;;13.80;40.70;100838.88;5077358;28;45321;-73
2023/03/16 10:41:17;;;;;;;;;1.00;1.00;;;;;13.89;41.29;100840.16;5077349;28;46098;-73
2023/03/16 10:43:44;;;;;;;;;3.00;1.00;;;;;13.91;40.89;100828.34;5076431;28;45430;-72
2023/03/16 10:46:10;;;;;;;;;4.50;2.75;;;;;14.03;41.12;100835.72;5057095;28;45325;-72
2023/03/16 10:48:37;;;;;;;;;5.00;5.00;;;;;14.08;40.64;100843.53;5056690;28;45462;-72
2023/03/16 10:51:13;;;;;;;;;4.50;4.50;;;;;14.16;40.37;100837.69;5038332;28;46443;-72
2023/03/16 10:53:43;;;;;;;;;1.75;1.75;;;;;14.20;40.35;100826.66;5056587;28;45367;-72
2023/03/16 10:56:21;;;;;;;;;2.75;2.75;;;;;14.31;40.84;100815.19;5056629;28;45428;-74
2023/03/16 10:58:47;;;;;;;;;4.00;2.00;;;;;14.31;40.40;100796.31;5056444;28;45364;-73
2023/03/16 11:01:19;;;;;;;;;2.50;2.50;;;;;14.52;40.33;100813.06;5057612;28;46025;-73
2023/03/16 11:03:50;;;;;;;;;2.75;2.75;;;;;14.59;39.79;100806.34;5071158;28;45428;-73
2023/03/16 11:06:20;;;;;;;;;3.00;1.00;;;;;14.53;39.79;100786.00;5056374;28;45377;-73
2023/03/16 11:08:46;;;;;;;;;1.50;1.50;;;;;14.49;40.04;100792.53;5056355;28;45390;-72
2023/03/16 11:11:38;;;;;;;;;4.00;2.25;;;;;14.61;40.28;100808.00;5056665;28;47228;-73
2023/03/16 11:14:11;;;;;;;;;4.00;2.00;;;;;14.62;39.87;100776.47;5063291;28;45409;-73
2023/03/16 11:16:45;;;;;;;;;1.00;1.00;;;;;14.89;40.13;100790.06;5058772;28;45738;-72
2023/03/16 11:19:19;;;;;;;;;4.25;3.00;;;;;15.03;39.49;100788.25;5076299;28;46043;-71
2023/03/16 11:22:08;;;;;;;;;3.50;2.00;;;;;15.15;39.62;100778.47;5076703;28;45501;-72
2023/03/16 11:25:01;;;;;;;;;4.50;2.50;;;;;15.24;39.67;100774.31;5076501;28;45365;-72
2023/03/16 11:27:35;;;;;;;;;3.00;2.00;;;;;15.40;39.40;100767.81;5076635;28;45404;-72
2023/03/16 11:30:08;;;;;;;;;2.50;2.50;;;;;15.55;39.25;100768.69;5068414;28;45216;-72
2023/03/16 11:32:37;;;;;;;;;2.00;2.00;;;;;15.61;38.93;100749.34;5055762;28;46416;-72
2023/03/16 11:35:12;;;;;;;;;1.00;1.00;;;;;15.75;38.70;100756.53;5055617;28;45394;-74
2023/03/16 11:38:14;;;;;;;;;3.25;3.25;;;;;15.80;37.51;100754.41;5056031;28;45523;-74
2023/03/16 11:41:01;;;;;;;;;2.00;2.00;;;;;15.85;38.32;100755.81;5056140;28;45289;-72
2023/03/16 11:43:52;;;;;;;;;2.00;2.00;;;;;15.97;38.28;100750.56;5056218;28;46592;-74
2023/03/16 11:46:52;;;;;;;;;2.00;1.00;;;;;16.17;38.05;100750.91;5064979;28;45339;-72
2023/03/16 11:49:40;;;;;;;;;6.25;2.25;;;;;16.43;38.54;100727.44;5023214;28;45535;-72
2023/03/16 11:52:16;;;;;;;;;3.25;2.00;;;;;16.64;37.00;100733.22;5075900;28;46210;-71
2023/03/16 11:55:00;;;;;;;;;3.75;2.00;;;;;16.91;36.65;100731.25;5070699;28;47368;-72
2023/03/16 11:57:45;;;;;;;;;3.00;1.75;;;;;17.21;36.32;100727.25;5063900;28;45390;-73
2023/03/16 12:00:39;;;;;;;;;3.25;2.00;;;;;17.52;36.27;100725.88;5059239;28;45464;-72
2023/03/16 12:03:30;;;;;;;;;3.25;2.00;;;;;17.88;36.61;100712.25;5069136;28;45358;-72
2023/03/16 12:06:01;;;;;;;;;7.25;4.00;;;;;18.26;35.24;100711.13;5075711;28;45386;-72
2023/03/16 12:09:00;;;;;;;;;4.00;2.00;;;;;18.56;33.57;100705.13;5075671;28;45352;-74
2023/03/16 12:11:43;;;;;;;;;2.00;2.00;;;;;19.42;33.30;100705.31;5075196;28;45596;-74
2023/03/16 12:14:23;;;;;;;;;0.75;0.75;;;;;20.34;32.18;100700.13;5075869;28;45220;-74
2023/03/16 12:17:16;;;;;;;;;2.75;2.75;;;;;21.31;32.00;100695.13;5075397;28;45508;-72
2023/03/16 12:20:17;;;;;;;;;1.50;1.50;;;;;22.21;29.74;100682.94;5075133;28;45382;-71
2023/03/16 12:22:47;;;;;;;;;2.75;0.50;;;;;22.87;29.28;100680.22;5061014;28;45394;-73
2023/03/16 12:25:22;;;;;;;;;2.25;1.75;;;;;23.56;28.11;100685.13;5066885;28;45898;-72
2023/03/16 12:27:53;;;;;;;;;2.00;2.00;;;;;24.22;27.29;100661.97;5055546;28;46137;-73
2023/03/16 12:30:37;;;;;;;;;3.00;2.00;;;;;25.11;26.60;100659.72;5037562;28;45368;-73
2023/03/16 12:33:18;;;;;;;;;1.75;1.75;;;;;25.92;26.02;100662.69;5035382;28;45343;-74
2023/03/16 12:35:55;;;;;;;;;3.00;1.25;;;;;26.41;24.32;100647.03;5034464;28;45302;-74
2023/03/16 12:38:20;;;;;;;;;3.75;2.25;;;;;26.69;23.27;100647.47;5035208;28;45743;-73
2023/03/16 12:41:09;;;;;;;;;2.00;1.75;;;;;26.94;23.38;100645.53;5034938;28;45507;-73
2023/03/16 12:43:49;;;;;;;;;2.00;2.00;;;;;27.48;23.35;100632.66;5035196;28;45430;-74
2023/03/16 12:46:34;;;;;;;;;3.50;3.00;;;;;27.89;21.71;100632.41;5034998;28;45374;-75
2023/03/16 12:49:04;;;;;;;;;1.50;1.50;;;;;28.16;22.24;100629.06;5033618;28;46127;-74
2023/03/16 12:51:35;;;;;;;;;2.25;1.75;;;;;28.79;21.65;100624.97;5034916;28;45265;-75
2023/03/16 12:54:01;;;;;;;;;0.75;0.00;;;;;28.87;21.30;100613.81;5034849;28;45428;-72
2023/03/16 12:56:32;;;;;;;;;1.00;0.00;;;;;28.94;19.63;100614.75;5029430;28;46474;-75
2023/03/16 12:59:02;;;;;;;;;1.00;1.00;;;;;29.24;19.71;100612.81;5054630;28;46840;-73
2023/03/16 13:01:43;;;;;;;;;0.75;0.75;;;;;29.38;19.66;100600.03;5054361;28;45543;-74
2023/03/16 13:04:33;;;;;;;;;1.50;0.00;;;;;29.30;18.60;100609.25;5034635;28;45491;-75
2023/03/16 13:07:03;;;;;;;;;1.00;1.00;;;;;29.39;19.28;100598.97;5034525;28;45652;-74
2023/03/16 13:09:33;;;;;;;;;3.00;0.75;;;;;29.49;18.60;100585.69;5034338;28;46951;-74
2023/03/16 13:12:03;;;;;;;;;2.50;2.00;;;;;29.52;19.04;100577.03;5016575;28;45569;-73
2023/03/16 13:14:39;;;;;;;;;1.25;1.25;;;;;29.63;19.34;100585.63;5034736;28;45564;-72
2023/03/16 13:17:21;;;;;;;;;1.75;1.75;;;;;29.57;19.78;100569.84;5034225;28;45341;-74
2023/03/16 13:20:21;;;;;;;;;2.75;2.00;;;;;29.76;19.18;100573.00;5033872;28;45375;-73
2023/03/16 13:22:51;;;;;;;;;1.00;1.00;;;;;29.89;18.26;100573.94;5019845;28;45322;-73
2023/03/16 13:25:22;;;;;;;;;3.00;1.50;;;;;30.25;19.01;100576.59;5034560;28;45388;-72
2023/03/16 13:27:51;;;;;;;;;0.00;0.00;;;;;30.52;18.67;100579.59;5034313;28;45509;-74
2023/03/16 13:30:18;;;;;;;;;1.75;1.00;;;;;30.65;18.39;100569.44;5034370;28;45284;-73
2023/03/16 13:32:45;;;;;;;;;1.50;1.00;;;;;30.50;18.06;100559.53;5053042;28;45540;-75
2023/03/16 13:35:14;;;;;;;;;1.00;1.00;;;;;30.24;17.45;100558.31;5054169;28;45339;-74
2023/03/16 13:37:42;;;;;;;;;0.75;0.75;;;;;30.14;19.03;100548.66;5054301;28;45312;-75
2023/03/16 13:40:21;;;;;;;;;2.75;0.50;;;;;30.09;18.59;100563.09;5054396;28;45364;-74
2023/03/16 13:42:53;;;;;;;;;1.75;1.00;;;;;29.95;18.00;100545.53;5054098;28;45320;-75
2023/03/16 13:45:22;;;;;;;;;2.00;1.00;;;;;29.76;17.19;100548.97;5054706;28;45432;-74
2023/03/16 13:47:49;;;;;;;;;2.75;1.00;;;;;29.80;17.53;100541.97;5061485;28;45220;-74
2023/03/16 13:50:16;;;;;;;;;1.25;1.00;;;;;29.76;17.24;100542.59;5073905;28;45296;-73
2023/03/16 13:52:49;;;;;;;;;2.25;1.50;;;;;29.76;17.48;100539.84;5074578;28;45244;-74
2023/03/16 13:55:24;;;;;;;;;1.75;1.75;;;;;29.57;18.34;100541.38;5064097;28;45285;-73
2023/03/16 13:57:51;;;;;;;;;1.00;1.00;;;;;29.29;17.59;100538.50;5054078;28;45531;-74
2023/03/16 14:00:26;;;;;;;;;2.00;1.50;;;;;29.28;18.39;100537.63;5053828;28;45367;-73
2023/03/16 14:02:57;;;;;;;;;2.75;1.25;;;;;29.24;18.65;100533.59;5069590;28;45421;-73
2023/03/16 14:05:34;;;;;;;;;2.75;1.75;;;;;29.13;18.10;100531.31;5054807;28;45461;-73
2023/03/16 14:08:00;;;;;;;;;2.75;2.75;;;;;29.24;18.63;100525.28;5036106;28;46106;-73
2023/03/16 14:10:34;;;;;;;;;4.75;3.00;;;;;29.38;18.54;100528.22;5054038;28;45338;-73
2023/03/16 14:13:08;;;;;;;;;2.00;2.00;;;;;29.56;19.05;100514.78;5069101;28;45469;-74
2023/03/16 14:15:36;;;;;;;;;1.00;1.00;;;;;29.73;18.96;100510.69;5074284;28;45220;-74
2023/03/16 14:18:20;;;;;;;;;3.50;2.00;;;;;29.59;17.87;100504.19;5074216;28;45891;-73
2023/03/16 14:20:46;;;;;;;;;1.25;1.00;;;;;29.20;17.97;100509.31;5073926;28;46593;-74
2023/03/16 14:23:35;;;;;;;;;1.00;1.00;;;;;28.90;19.08;100512.19;5073942;28;45315;-73
2023/03/16 14:26:04;;;;;;;;;1.00;1.00;;;;;28.76;18.63;100509.41;5055816;28;45496;-73
2023/03/16 14:28:32;;;;;;;;;1.00;1.00;;;;;28.69;19.67;100514.84;5073988;28;45323;-73
2023/03/16 14:31:20;;;;;;;;;1.00;1.00;;;;;28.42;19.33;100505.38;5073587;28;46565;-74
2023/03/16 14:33:46;;;;;;;;;1.00;1.00;;;;;28.35;19.73;100500.81;5073479;28;45321;-73
2023/03/16 14:36:13;;;;;;;;;0.00;0.00;;;;;28.14;19.56;100496.91;5076377;28;45338;-74
2023/03/16 14:38:40;;;;;;;;;3.00;1.00;;;;;27.98;19.26;100499.88;5077682;28;45307;-73
2023/03/16 14:41:20;;;;;;;;;1.00;1.00;;;;;28.01;19.76;100509.63;5077641;28;45489;-74
2023/03/16 14:43:48;;;;;;;;;0.00;0.00;;;;;27.84;19.38;100497.91;5077579;28;45525;-74
2023/03/16 14:46:30;;;;;;;;;2.75;2.00;;;;;27.90;20.43;100482.56;5077510;28;45345;-74
2023/03/16 14:49:07;;;;;;;;;3.75;0.75;;;;;28.25;20.00;100501.09;5076657;28;45666;-73
2023/03/16 14:51:35;;;;;;;;;0.75;0.75;;;;;28.14;19.71;100496.06;5077301;28;45342;-73
2023/03/16 14:54:01;;;;;;;;;1.25;1.25;;;;;28.12;20.51;100489.88;5076892;28;45288;-74
2023/03/16 14:56:32;;;;;;;;;3.00;2.00;;;;;28.21;19.86;100486.00;5056862;28;45613;-72
2023/03/16 14:58:58;;;;;;;;;2.00;1.00;;;;;28.08;19.97;100494.03;5056926;28;45163;-75
2023/03/16 15:01:24;;;;;;;;;0.00;0.00;;;;;28.21;20.12;100481.34;5059834;28;49022;-74
2023/03/16 15:03:49;;;;;;;;;1.25;1.25;;;;;28.23;19.67;100478.41;5070710;28;45425;-74
2023/03/16 15:06:15;;;;;;;;;1.00;1.00;;;;;28.17;19.71;100476.41;5057284;28;45386;-74
2023/03/16 15:08:44;;;;;;;;;1.25;1.00;;;;;28.08;19.61;100478.34;5057017;28;45465;-74
2023/03/16 15:11:10;;;;;;;;;1.00;1.00;;;;;27.84;20.01;100470.38;5056981;28;46158;-74
2023/03/16 15:13:51;;;;;;;;;0.00;0.00;;;;;27.48;20.49;100471.03;5056580;28;45685;-74
2023/03/16 15:16:18;;;;;;;;;1.00;1.00;;;;;26.87;21.67;100469.28;5056812;28;45358;-73
2023/03/16 15:18:44;;;;;;;;;2.25;1.00;;;;;26.41;21.71;100454.59;5056231;28;45596;-72
2023/03/16 15:21:12;;;;;;;;;1.00;1.00;;;;;26.06;21.38;100455.91;5056325;28;45423;-74
2023/03/16 15:23:40;;;;;;;;;1.25;1.00;;;;;25.60;22.48;100449.38;5056543;28;45319;-74
2023/03/16 15:26:06;;;;;;;;;0.00;0.00;;;;;25.24;22.73;100455.19;5056490;28;45295;-74
2023/03/16 15:28:32;;;;;;;;;1.50;1.50;;;;;24.84;23.88;100453.22;5056363;28;45576;-73
2023/03/16 15:31:00;;;;;;;;;2.00;1.25;;;;;24.63;24.83;100452.00;5056042;28;46062;-73
2023/03/16 15:33:26;;;;;;;;;1.75;0.75;;;;;24.49;25.18;100457.13;5056374;28;45336;-72
2023/03/16 15:35:54;;;;;;;;;1.75;1.75;;;;;24.31;25.61;100452.78;5055871;28;45520;-75
2023/03/16 15:38:28;;;;;;;;;3.75;1.50;;;;;24.20;25.45;100453.03;5056534;28;45596;-73
2023/03/16 15:40:54;;;;;;;;;1.75;1.75;;;;;24.06;25.65;100447.16;5055996;28;46086;-74
2023/03/16 15:43:22;;;;;;;;;2.50;1.25;;;;;23.92;26.17;100449.63;5056154;28;45339;-74
2023/03/16 15:45:48;;;;;;;;;1.00;1.00;;;;;23.85;26.49;100449.44;5056074;28;45417;-73
2023/03/16 15:48:15;;;;;;;;;1.00;1.00;;;;;23.73;26.21;100439.81;5055985;28;45522;-73
2023/03/16 15:50:45;;;;;;;;;1.25;1.25;;;;;23.67;26.50;100443.16;5055434;28;45455;-73
2023/03/16 15:53:23;;;;;;;;;2.25;2.00;;;;;23.60;27.33;100439.38;5055960;28;45383;-74
2023/03/16 15:55:55;;;;;;;;;2.00;2.00;;;;;23.55;26.82;100442.59;5063534;28;45419;-73
2023/03/16 15:58:24;;;;;;;;;2.00;2.00;;;;;23.38;27.35;100430.66;5038351;28;47101;-72
2023/03/16 16:00:54;;;;;;;;;2.00;1.00;;;;;23.24;26.94;100416.69;5055807;28;45343;-73
2023/03/16 16:03:20;;;;;;;;;2.00;1.75;;;;;23.04;27.88;100416.03;5072559;28;45280;-72
2023/03/16 16:05:45;;;;;;;;;4.50;3.50;;;;;22.92;28.26;100420.88;5037495;28;45434;-74
2023/03/16 16:08:11;;;;;;;;;0.75;0.75;;;;;22.73;27.96;100442.00;5037393;28;45536;-71
2023/03/16 16:10:38;;;;;;;;;1.75;0.00;;;;;22.59;28.31;100437.94;5055894;28;45454;-74
2023/03/16 16:13:04;;;;;;;;;3.50;1.25;;;;;22.52;29.08;100432.25;5055632;28;45364;-75
2023/03/16 16:15:34;;;;;;;;;2.50;2.50;;;;;22.23;28.95;100396.91;5055732;28;45320;-74
2023/03/16 16:18:00;;;;;;;;;3.50;2.00;;;;;22.21;29.18;100428.97;5054257;28;45983;-74
2023/03/16 16:20:28;;;;;;;;;1.75;0.75;;;;;22.05;29.25;100419.72;5055187;28;46075;-74
2023/03/16 16:22:58;;;;;;;;;1.75;1.75;;;;;21.80;29.18;100402.16;5055427;28;45379;-73
2023/03/16 16:25:26;;;;;;;;;0.75;0.75;;;;;21.60;30.22;100416.91;5055669;28;45431;-73
2023/03/16 16:27:52;;;;;;;;;1.50;1.50;;;;;21.39;30.08;100409.78;5055396;28;45221;-73
2023/03/16 16:30:24;;;;;;;;;2.75;2.75;;;;;21.32;29.92;100413.25;5055692;28;45264;-73
2023/03/16 16:32:50;;;;;;;;;1.25;1.25;;;;;21.25;30.55;100417.56;5055744;28;45262;-77
2023/03/16 16:35:18;;;;;;;;;2.00;1.25;;;;;21.13;30.82;100414.97;5036866;28;45520;-73
2023/03/16 16:37:44;;;;;;;;;2.75;2.75;;;;;21.07;31.09;100426.47;5055556;28;45579;-72
2023/03/16 16:40:22;;;;;;;;;3.75;0.75;;;;;20.97;30.75;100422.00;5055344;28;45955;-72
2023/03/16 16:42:50;;;;;;;;;2.00;2.00;;;;;20.87;30.72;100423.88;5062537;28;45490;-71
2023/03/16 16:45:17;;;;;;;;;1.75;0.75;;;;;20.74;30.86;100425.03;5057066;28;45375;-74
2023/03/16 16:47:43;;;;;;;;;1.75;1.75;;;;;20.58;31.76;100413.84;5049763;28;45445;-72
2023/03/16 16:50:21;;;;;;;;;1.50;1.00;;;;;20.50;31.58;100421.00;5054558;28;45415;-74
2023/03/16 16:52:47;;;;;;;;;1.50;1.50;;;;;20.39;31.76;100422.84;5063997;28;45350;-74
2023/03/16 16:55:13;;;;;;;;;0.25;0.25;;;;;20.39;32.34;100431.03;5049025;28;45478;-72
2023/03/16 16:57:40;;;;;;;;;2.50;1.00;;;;;20.29;32.01;100430.09;5073705;28;45316;-74
2023/03/16 17:00:16;;;;;;;;;2.00;2.00;;;;;20.28;32.01;100431.09;5075250;28;45321;-74
2023/03/16 17:02:47;;;;;;;;;1.00;1.00;;;;;20.21;32.43;100438.13;5074430;28;45492;-73
2023/03/16 17:05:19;;;;;;;;;2.00;1.00;;;;;20.14;32.53;100441.53;5060956;28;45455;-70
2023/03/16 17:07:45;;;;;;;;;2.00;2.00;;;;;19.96;32.61;100433.16;5063304;28;45322;-73
2023/03/16 17:10:21;;;;;;;;;1.25;1.25;;;;;19.95;32.72;100440.47;5054136;28;45451;-73
2023/03/16 17:12:48;;;;;;;;;3.75;2.00;;;;;19.80;32.94;100409.19;5052185;28;45422;-72